Terminal Aerodrome Forecast
Issued by NWS

Home | Current Version | Previous Version | Text Only | Print | Product List | Glossary On
Versions: 1 2 3 4 5 6 7 8 9 10 11 12 13 14
293
FTUS43 KICT 041135
TAFHUT
TAF
KHUT 041135Z 0412/0512 26005KT P6SM SCT017
      TEMPO 0412/0415 5SM BR BKN017
     FM041600 30008KT P6SM SKC=

USA.gov is the U.S. government's official web portal to all federal, state and local government web resources and services.